createdAt,value
2023-04-07T00:00:50.739Z,64.62
2023-04-07T00:03:20.894Z,65.27
2023-04-07T00:05:51.107Z,65.46
2023-04-07T00:08:21.234Z,65.67
2023-04-07T00:10:51.003Z,66.44
2023-04-07T00:13:20.752Z,67.14
2023-04-07T00:15:53.110Z,67.86
2023-04-07T00:18:22.935Z,67.69
2023-04-07T00:20:52.809Z,68.13
2023-04-07T00:23:22.876Z,68.00
2023-04-07T00:25:52.780Z,68.01
2023-04-07T00:28:22.876Z,67.92
2023-04-07T00:30:55.356Z,67.39
2023-04-07T00:33:25.184Z,67.93
2023-04-07T00:35:55.150Z,68.39
2023-04-07T00:38:24.896Z,68.24
2023-04-07T00:41:01.005Z,68.59
2023-04-07T00:43:30.806Z,68.63
2023-04-07T00:46:03.942Z,68.79
2023-04-07T00:48:34.435Z,68.45
2023-04-07T00:51:05.960Z,67.78
2023-04-07T00:53:36.108Z,68.73
2023-04-07T00:56:06.643Z,70.27
2023-04-07T00:58:36.472Z,70.62
2023-04-07T01:01:13.758Z,69.53
2023-04-07T01:03:49.532Z,69.05
2023-04-07T01:06:23.043Z,67.82
2023-04-07T01:08:57.591Z,67.35
2023-04-07T01:11:31.347Z,67.03
2023-04-07T01:14:03.388Z,66.35
2023-04-07T01:16:46.005Z,66.00
2023-04-07T01:19:22.773Z,66.24
2023-04-07T01:22:00.983Z,66.48
2023-04-07T01:24:49.073Z,66.34
2023-04-07T01:27:28.102Z,67.27
2023-04-07T01:30:04.343Z,68.14
2023-04-07T01:32:37.072Z,68.44
2023-04-07T01:35:10.266Z,68.58
2023-04-07T01:37:41.644Z,69.18
2023-04-07T01:40:12.949Z,69.61
2023-04-07T01:42:43.933Z,69.61
2023-04-07T01:45:17.879Z,70.08
2023-04-07T01:47:48.413Z,69.52
2023-04-07T01:50:19.259Z,69.28
2023-04-07T01:52:49.258Z,69.18
2023-04-07T01:55:19.115Z,69.07
2023-04-07T01:57:58.129Z,68.92
2023-04-07T02:00:30.818Z,69.03
2023-04-07T02:03:08.393Z,68.78
2023-04-07T02:05:41.550Z,68.87
2023-04-07T02:08:14.892Z,68.97
2023-04-07T02:10:45.531Z,68.63
2023-04-07T02:13:19.685Z,67.87
2023-04-07T02:15:56.558Z,66.54
2023-04-07T02:18:28.090Z,66.30
2023-04-07T02:20:59.127Z,66.67
2023-04-07T02:23:29.022Z,67.13
2023-04-07T02:26:02.087Z,66.98
2023-04-07T02:28:31.904Z,67.06
2023-04-07T02:31:04.338Z,67.03
2023-04-07T02:33:35.657Z,67.72
2023-04-07T02:36:05.520Z,67.56
2023-04-07T02:38:35.529Z,67.13
2023-04-07T02:41:07.633Z,67.23
2023-04-07T02:43:37.420Z,67.18
2023-04-07T02:46:09.956Z,67.08
2023-04-07T02:48:39.807Z,66.31
2023-04-07T02:51:09.661Z,65.75
2023-04-07T02:53:39.564Z,65.52
2023-04-07T02:56:09.886Z,65.62
2023-04-07T02:58:39.724Z,65.81
2023-04-07T03:01:12.234Z,65.27
2023-04-07T03:03:42.535Z,65.58
2023-04-07T03:06:23.084Z,65.55
2023-04-07T03:09:04.447Z,65.92
2023-04-07T03:11:34.277Z,66.17
2023-04-07T03:14:04.211Z,66.26
2023-04-07T03:16:37.914Z,66.13
2023-04-07T03:19:12.954Z,66.18
2023-04-07T03:21:48.826Z,65.72
2023-04-07T03:24:18.762Z,65.86
2023-04-07T03:26:51.489Z,65.76
2023-04-07T03:29:30.152Z,66.51
2023-04-07T03:32:02.675Z,66.99
2023-04-07T03:34:32.507Z,67.43
2023-04-07T03:37:02.392Z,68.44
2023-04-07T03:39:37.509Z,68.33
2023-04-07T03:42:15.835Z,69.06
2023-04-07T03:44:46.649Z,69.57
2023-04-07T03:47:19.225Z,70.16
2023-04-07T03:49:55.536Z,70.48
2023-04-07T03:52:25.994Z,70.69
2023-04-07T03:55:02.221Z,70.34
2023-04-07T03:57:34.997Z,70.34
2023-04-07T04:00:06.045Z,70.36
2023-04-07T04:02:48.730Z,70.66
2023-04-07T04:05:22.476Z,70.96
2023-04-07T04:07:53.644Z,71.17
2023-04-07T04:10:25.725Z,70.88
2023-04-07T04:12:57.116Z,71.18
2023-04-07T04:15:26.921Z,71.08
2023-04-07T04:17:59.992Z,70.82
2023-04-07T04:20:30.143Z,70.84
2023-04-07T04:23:00.029Z,71.06
2023-04-07T04:25:30.036Z,70.90
2023-04-07T04:28:01.017Z,70.94
2023-04-07T04:30:31.106Z,70.85
2023-04-07T04:33:07.853Z,71.98
2023-04-07T04:35:44.470Z,72.20
2023-04-07T04:38:17.885Z,71.78
2023-04-07T04:40:54.494Z,71.67
2023-04-07T04:43:29.678Z,72.09
2023-04-07T04:45:59.904Z,72.55
2023-04-07T04:48:34.933Z,73.33
2023-04-07T04:51:08.906Z,73.02
2023-04-07T04:53:40.860Z,73.45
2023-04-07T04:56:11.390Z,73.12
2023-04-07T04:58:48.823Z,71.65
2023-04-07T05:01:27.137Z,71.02
2023-04-07T05:04:09.880Z,70.95
2023-04-07T05:06:42.075Z,71.64
2023-04-07T05:09:14.553Z,71.74
2023-04-07T05:11:47.425Z,71.39
2023-04-07T05:14:20.662Z,72.07
2023-04-07T05:16:57.172Z,71.96
2023-04-07T05:19:33.783Z,72.46
2023-04-07T05:22:10.770Z,73.03
2023-04-07T05:24:47.131Z,73.06
2023-04-07T05:27:16.894Z,72.46
2023-04-07T05:29:49.633Z,72.92
2023-04-07T05:32:27.780Z,73.09
2023-04-07T05:35:02.685Z,72.33
2023-04-07T05:37:36.115Z,72.86
2023-04-07T05:40:09.486Z,72.89
2023-04-07T05:42:39.270Z,71.32
2023-04-07T05:45:10.806Z,70.59
2023-04-07T05:47:44.555Z,70.35
2023-04-07T05:50:17.374Z,69.70
2023-04-07T05:52:49.803Z,69.65
2023-04-07T05:55:27.340Z,70.20
2023-04-07T05:57:58.237Z,69.92
2023-04-07T06:00:32.053Z,69.62
2023-04-07T06:03:08.358Z,69.54
2023-04-07T06:05:52.600Z,69.12
2023-04-07T06:08:24.205Z,68.68
2023-04-07T06:10:54.010Z,68.61
2023-04-07T06:13:23.793Z,67.63
2023-04-07T06:15:53.542Z,66.97
2023-04-07T06:18:23.335Z,66.33
2023-04-07T06:20:55.887Z,65.18
2023-04-07T06:23:25.764Z,65.65
2023-04-07T06:25:55.589Z,65.20
2023-04-07T06:28:25.903Z,65.37
2023-04-07T06:30:57.604Z,65.95
2023-04-07T06:33:28.813Z,67.10
2023-04-07T06:36:03.332Z,67.29
2023-04-07T06:38:33.491Z,66.52
2023-04-07T06:41:03.347Z,66.84
2023-04-07T06:43:33.332Z,67.35
2023-04-07T06:46:09.930Z,68.07
2023-04-07T06:48:39.914Z,68.03
2023-04-07T06:51:12.422Z,68.49
2023-04-07T06:53:42.177Z,68.15
2023-04-07T06:56:13.676Z,67.82
2023-04-07T06:58:43.588Z,68.20
2023-04-07T07:01:13.349Z,68.17
2023-04-07T07:03:43.261Z,67.46
2023-04-07T07:06:15.718Z,67.96
2023-04-07T07:08:45.515Z,67.57
2023-04-07T07:11:15.280Z,67.17
2023-04-07T07:13:45.352Z,66.68
2023-04-07T07:16:15.794Z,67.02
2023-04-07T07:18:45.794Z,66.39
2023-04-07T07:21:20.498Z,66.24
2023-04-07T07:23:50.392Z,66.23
2023-04-07T07:26:21.031Z,66.26
2023-04-07T07:28:50.844Z,66.05
2023-04-07T07:31:20.694Z,66.18
2023-04-07T07:33:52.017Z,65.66
2023-04-07T07:36:25.137Z,65.75
2023-04-07T07:38:55.406Z,66.42
2023-04-07T07:41:26.687Z,66.39
2023-04-07T07:43:56.709Z,67.17
2023-04-07T07:46:27.508Z,66.67
2023-04-07T07:48:57.266Z,66.98
2023-04-07T07:51:30.194Z,66.98
2023-04-07T07:54:00.245Z,66.50
2023-04-07T07:56:30.451Z,66.27
2023-04-07T07:59:00.344Z,66.21
2023-04-07T08:01:30.412Z,66.28
2023-04-07T08:04:00.404Z,66.33
2023-04-07T08:06:33.748Z,66.27
2023-04-07T08:09:03.797Z,65.91
2023-04-07T08:11:33.814Z,65.26
2023-04-07T08:14:03.943Z,65.36
2023-04-07T08:16:33.930Z,65.19
2023-04-07T08:19:04.056Z,64.80
2023-04-07T08:21:36.896Z,65.33
2023-04-07T08:24:07.344Z,64.63
2023-04-07T08:26:37.799Z,64.72
2023-04-07T08:29:08.125Z,64.11
2023-04-07T08:31:38.119Z,63.73
2023-04-07T08:34:08.040Z,63.90
2023-04-07T08:36:43.945Z,64.33
2023-04-07T08:39:17.887Z,64.37
2023-04-07T08:41:50.006Z,62.71
2023-04-07T08:44:22.953Z,63.24
2023-04-07T08:46:56.253Z,62.46
2023-04-07T08:49:28.149Z,63.36
2023-04-07T08:52:05.232Z,61.45
2023-04-07T08:54:37.937Z,62.56
2023-04-07T08:57:09.915Z,62.01
2023-04-07T08:59:44.422Z,62.63
2023-04-07T09:02:17.095Z,62.25
2023-04-07T09:04:48.197Z,61.79
2023-04-07T09:07:23.589Z,61.32
2023-04-07T09:09:53.726Z,59.87
2023-04-07T09:12:25.338Z,60.08
2023-04-07T09:15:00.998Z,59.59
2023-04-07T09:17:34.121Z,60.46
2023-04-07T09:20:05.245Z,59.08
2023-04-07T09:22:42.672Z,58.39
2023-04-07T09:25:14.850Z,58.84
2023-04-07T09:27:44.720Z,57.52
2023-04-07T09:30:16.633Z,57.33
2023-04-07T09:32:46.531Z,56.15
2023-04-07T09:35:16.371Z,57.02
2023-04-07T09:38:06.467Z,56.68
2023-04-07T09:40:36.818Z,57.12
2023-04-07T09:43:08.235Z,56.58
2023-04-07T09:45:39.613Z,57.54
2023-04-07T09:48:09.991Z,56.13
2023-04-07T09:50:42.288Z,56.56
2023-04-07T09:53:14.683Z,56.92
2023-04-07T09:55:45.357Z,56.73
2023-04-07T09:58:17.127Z,56.08
2023-04-07T10:00:48.280Z,55.36
2023-04-07T10:03:18.514Z,55.10
2023-04-07T10:05:49.779Z,54.99
2023-04-07T10:08:22.386Z,54.92
2023-04-07T10:10:52.778Z,54.36
2023-04-07T10:13:24.505Z,53.86
2023-04-07T10:15:55.194Z,53.56
2023-04-07T10:18:28.969Z,52.53
2023-04-07T10:20:59.991Z,52.99
2023-04-07T10:23:40.336Z,52.66
2023-04-07T10:26:11.829Z,52.73
2023-04-07T10:28:46.482Z,53.26
2023-04-07T10:31:17.112Z,52.77
2023-04-07T10:33:52.239Z,52.39
2023-04-07T10:36:23.293Z,51.79
2023-04-07T10:39:24.286Z,51.79
2023-04-07T10:41:57.399Z,51.96
2023-04-07T10:44:50.696Z,50.62
2023-04-07T10:47:20.535Z,51.00
2023-04-07T10:50:18.729Z,50.15
2023-04-07T10:52:49.487Z,50.10
2023-04-07T10:55:33.314Z,49.99
2023-04-07T10:58:24.755Z,49.10
2023-04-07T11:01:30.494Z,49.66
2023-04-07T11:04:05.082Z,49.12
2023-04-07T11:06:34.980Z,49.46
2023-04-07T11:09:04.735Z,49.76
2023-04-07T11:11:46.451Z,47.35
2023-04-07T11:14:28.643Z,46.26
2023-04-07T11:16:59.342Z,46.59
2023-04-07T11:19:29.130Z,46.86
2023-04-07T11:22:29.347Z,47.08
2023-04-07T11:25:00.336Z,45.87
2023-04-07T11:27:30.166Z,46.38
2023-04-07T11:30:03.381Z,46.75
2023-04-07T11:32:33.138Z,45.58
2023-04-07T11:35:02.945Z,47.02
2023-04-07T11:37:32.889Z,46.00
2023-04-07T11:40:02.704Z,44.89
2023-04-07T11:42:36.366Z,45.23
2023-04-07T11:45:19.358Z,44.52
2023-04-07T11:47:51.163Z,44.44
2023-04-07T11:50:41.476Z,44.79
2023-04-07T11:53:12.201Z,44.83
2023-04-07T11:55:42.223Z,45.03
2023-04-07T11:58:12.752Z,44.72
2023-04-07T12:01:05.154Z,44.58
2023-04-07T12:03:35.079Z,44.07
2023-04-07T12:06:05.708Z,44.43
2023-04-07T12:08:42.926Z,43.79
2023-04-07T12:11:13.504Z,44.27
2023-04-07T12:13:43.321Z,43.42
2023-04-07T12:16:15.702Z,42.73
2023-04-07T12:18:45.491Z,43.51
2023-04-07T12:21:15.842Z,42.39
2023-04-07T12:23:46.152Z,42.93
2023-04-07T12:26:16.438Z,42.90
2023-04-07T12:28:46.185Z,43.18
2023-04-07T12:31:18.566Z,43.93
2023-04-07T12:33:48.651Z,43.83
2023-04-07T12:36:18.729Z,42.36
2023-04-07T12:38:48.577Z,41.67
2023-04-07T12:41:18.314Z,42.51
2023-04-07T12:43:48.387Z,42.42
2023-04-07T12:46:21.895Z,41.95
2023-04-07T12:48:51.785Z,42.69
2023-04-07T12:51:21.598Z,42.13
2023-04-07T12:53:51.432Z,41.38
2023-04-07T12:56:22.573Z,40.86
2023-04-07T12:58:53.625Z,41.28
2023-04-07T13:01:26.198Z,41.30
2023-04-07T13:03:56.429Z,41.45
2023-04-07T13:06:26.258Z,41.84
2023-04-07T13:08:56.644Z,41.40
2023-04-07T13:11:26.560Z,42.13
2023-04-07T13:13:57.962Z,42.65
2023-04-07T13:16:31.721Z,42.33
2023-04-07T13:19:02.222Z,42.66
2023-04-07T13:24:05.179Z,42.23
2023-04-07T13:26:34.890Z,43.29
2023-04-07T13:29:04.636Z,41.68
2023-04-07T13:31:36.980Z,42.34
2023-04-07T13:34:06.739Z,41.79
2023-04-07T13:36:37.664Z,40.76
2023-04-07T13:39:07.434Z,41.40
2023-04-07T13:41:37.257Z,42.11
2023-04-07T13:44:07.059Z,42.94
2023-04-07T13:46:39.399Z,43.29
2023-04-07T13:49:09.171Z,41.52
2023-04-07T13:51:38.968Z,41.42
2023-04-07T13:54:08.711Z,41.36
2023-04-07T13:56:38.728Z,41.01
2023-04-07T13:59:08.846Z,41.05
2023-04-07T14:01:42.043Z,41.59
2023-04-07T14:04:12.590Z,40.98
2023-04-07T14:06:42.386Z,40.87
2023-04-07T14:09:12.161Z,40.99
2023-04-07T14:11:42.167Z,40.57
2023-04-07T14:14:11.902Z,40.33
2023-04-07T14:16:44.732Z,40.32
2023-04-07T14:19:14.727Z,40.36
2023-04-07T14:21:44.440Z,40.48
2023-04-07T14:24:14.231Z,40.14
2023-04-07T14:26:45.678Z,40.53
2023-04-07T14:29:16.106Z,42.27
2023-04-07T14:31:48.820Z,41.33
2023-04-07T14:34:18.658Z,41.52
2023-04-07T14:36:56.401Z,41.83
2023-04-07T14:39:26.945Z,41.28
2023-04-07T14:41:56.732Z,41.66
2023-04-07T14:44:26.500Z,40.64
2023-04-07T14:46:58.942Z,40.31
2023-04-07T14:49:29.053Z,41.34
2023-04-07T14:51:58.839Z,41.04
2023-04-07T14:54:28.810Z,40.94
2023-04-07T14:56:58.801Z,40.34
2023-04-07T14:59:28.580Z,40.13
2023-04-07T15:02:01.162Z,40.28
2023-04-07T15:04:31.088Z,41.03
2023-04-07T15:07:00.939Z,41.53
2023-04-07T15:09:31.437Z,40.49
2023-04-07T15:12:02.267Z,39.71
2023-04-07T15:14:32.385Z,39.24
2023-04-07T15:17:04.975Z,38.42
2023-04-07T15:19:34.747Z,39.68
2023-04-07T15:22:04.497Z,39.78
2023-04-07T15:24:34.245Z,39.72
2023-04-07T15:27:03.981Z,39.96
2023-04-07T15:29:33.724Z,41.08
2023-04-07T15:32:06.415Z,40.81
2023-04-07T15:34:36.202Z,40.54
2023-04-07T15:37:06.252Z,40.05
2023-04-07T15:39:36.106Z,40.52
2023-04-07T15:42:08.254Z,40.43
2023-04-07T15:44:39.927Z,40.55
2023-04-07T15:47:12.495Z,41.20
2023-04-07T15:49:42.508Z,40.28
2023-04-07T15:52:13.741Z,39.50
2023-04-07T15:54:43.542Z,39.34
2023-04-07T15:57:13.395Z,39.28
2023-04-07T15:59:43.135Z,39.80
2023-04-07T16:02:15.773Z,39.69
2023-04-07T16:04:47.574Z,38.39
2023-04-07T16:07:17.290Z,39.66
2023-04-07T16:09:47.003Z,38.66
2023-04-07T16:12:17.395Z,39.34
2023-04-07T16:14:47.366Z,39.50
2023-04-07T16:17:19.712Z,39.77
2023-04-07T16:19:49.514Z,39.60
2023-04-07T16:22:19.287Z,41.02
2023-04-07T16:24:49.038Z,40.85
2023-04-07T16:27:18.822Z,40.62
2023-04-07T16:29:48.777Z,40.64
2023-04-07T16:32:21.078Z,40.47
2023-04-07T16:34:50.978Z,41.13
2023-04-07T16:37:20.745Z,40.76
2023-04-07T16:39:50.772Z,40.43
2023-04-07T16:42:20.580Z,40.38
2023-04-07T16:44:50.390Z,40.71
2023-04-07T16:47:23.133Z,40.66
2023-04-07T16:49:53.131Z,41.34
2023-04-07T16:52:23.251Z,41.06
2023-04-07T16:54:53.258Z,41.00
2023-04-07T16:57:23.056Z,41.08
2023-04-07T16:59:52.970Z,40.75
2023-04-07T17:02:27.591Z,41.10
2023-04-07T17:04:57.576Z,40.83
2023-04-07T17:07:27.471Z,40.61
2023-04-07T17:09:57.303Z,41.06
2023-04-07T17:12:27.053Z,42.03
2023-04-07T17:14:56.775Z,42.35
2023-04-07T17:17:29.221Z,42.50
2023-04-07T17:19:59.873Z,42.98
2023-04-07T17:22:29.599Z,43.39
2023-04-07T17:24:59.341Z,43.70
2023-04-07T17:27:29.121Z,43.65
2023-04-07T17:29:59.361Z,43.61
2023-04-07T17:32:31.888Z,43.73
2023-04-07T17:35:01.659Z,43.90
2023-04-07T17:37:31.966Z,43.80
2023-04-07T17:40:01.897Z,44.05
2023-04-07T17:42:31.665Z,44.70
2023-04-07T17:45:01.967Z,44.93
2023-04-07T17:47:34.388Z,45.13
2023-04-07T17:50:04.616Z,45.08
2023-04-07T17:52:34.401Z,45.33
2023-04-07T17:55:06.804Z,45.99
2023-04-07T17:57:36.798Z,46.32
2023-04-07T18:00:08.238Z,46.50
2023-04-07T18:02:51.581Z,46.85
2023-04-07T18:05:23.715Z,47.07
2023-04-07T18:07:55.181Z,47.01
2023-04-07T18:10:26.585Z,47.47
2023-04-07T18:12:57.270Z,47.32
2023-04-07T18:15:28.507Z,47.33
2023-04-07T18:18:02.594Z,47.15
2023-04-07T18:20:34.829Z,47.13
2023-04-07T18:23:05.491Z,46.90
2023-04-07T18:25:37.737Z,47.44
2023-04-07T18:28:08.717Z,47.40
2023-04-07T18:30:39.564Z,47.24
2023-04-07T18:33:15.097Z,47.64
2023-04-07T18:35:55.946Z,48.03
2023-04-07T18:38:26.838Z,48.23
2023-04-07T18:40:58.672Z,47.93
2023-04-07T18:43:30.383Z,48.01
2023-04-07T18:46:00.772Z,48.32
2023-04-07T18:48:39.739Z,48.85
2023-04-07T18:51:10.424Z,49.08
2023-04-07T18:53:40.240Z,48.93
2023-04-07T18:56:10.097Z,48.38
2023-04-07T18:58:45.014Z,48.02
2023-04-07T19:01:15.925Z,47.95
2023-04-07T19:03:48.833Z,47.62
2023-04-07T19:06:19.642Z,47.82
2023-04-07T19:08:50.077Z,48.60
2023-04-07T19:11:20.696Z,48.77
2023-04-07T19:13:52.448Z,49.39
2023-04-07T19:16:24.631Z,48.89
2023-04-07T19:18:57.354Z,48.57
2023-04-07T19:21:27.729Z,49.31
2023-04-07T19:23:59.552Z,49.82
2023-04-07T19:26:29.765Z,50.44
2023-04-07T19:29:00.019Z,50.92
2023-04-07T19:31:29.823Z,51.83
2023-04-07T19:34:02.155Z,52.56
2023-04-07T19:36:33.039Z,53.23
2023-04-07T19:39:04.804Z,53.78
2023-04-07T19:41:34.652Z,53.70
2023-04-07T19:44:04.506Z,54.30
2023-04-07T19:46:34.811Z,54.28
2023-04-07T19:49:07.191Z,54.50
2023-04-07T19:51:36.960Z,55.20
2023-04-07T19:54:06.800Z,55.34
2023-04-07T19:56:36.541Z,55.23
2023-04-07T19:59:06.352Z,55.83
2023-04-07T20:01:36.159Z,55.79
2023-04-07T20:04:08.826Z,56.46
2023-04-07T20:06:40.691Z,56.49
2023-04-07T20:09:10.674Z,56.55
2023-04-07T20:11:40.472Z,56.50
2023-04-07T20:14:10.233Z,56.62
2023-04-07T20:16:40.113Z,56.77
2023-04-07T20:19:12.490Z,56.50
2023-04-07T20:21:42.279Z,56.77
2023-04-07T20:24:12.135Z,56.85
2023-04-07T20:26:42.033Z,56.95
2023-04-07T20:29:11.746Z,57.31
2023-04-07T20:31:41.546Z,57.35
2023-04-07T20:34:13.851Z,57.50
2023-04-07T20:36:43.711Z,57.24
2023-04-07T20:39:13.455Z,57.43
2023-04-07T20:41:45.263Z,58.18
2023-04-07T20:44:15.112Z,57.88
2023-04-07T20:46:47.015Z,58.39
2023-04-07T20:49:19.465Z,59.12
2023-04-07T20:51:49.178Z,59.67
2023-04-07T20:54:18.925Z,59.79
2023-04-07T20:56:48.643Z,59.78
2023-04-07T20:59:18.388Z,60.09
2023-04-07T21:01:48.389Z,60.80
2023-04-07T21:04:21.026Z,61.34
2023-04-07T21:06:51.005Z,61.60
2023-04-07T21:09:20.747Z,62.12
2023-04-07T21:11:50.489Z,62.88
2023-04-07T21:14:20.218Z,63.38
2023-04-07T21:16:50.009Z,64.03
2023-04-07T21:19:22.401Z,63.89
2023-04-07T21:21:52.160Z,64.58
2023-04-07T21:24:21.955Z,65.39
2023-04-07T21:26:51.790Z,65.56
2023-04-07T21:29:21.884Z,66.03
2023-04-07T21:31:51.651Z,66.48
2023-04-07T21:34:23.976Z,66.43
2023-04-07T21:36:53.762Z,66.64
2023-04-07T21:39:23.557Z,67.25
2023-04-07T21:41:53.316Z,67.56
2023-04-07T21:44:23.532Z,67.91
2023-04-07T21:46:53.450Z,68.63
2023-04-07T21:49:26.040Z,68.60
2023-04-07T21:51:55.790Z,68.12
2023-04-07T21:54:26.055Z,68.32
2023-04-07T21:56:57.303Z,68.46
2023-04-07T21:59:27.464Z,68.41
2023-04-07T22:02:00.684Z,68.92
2023-04-07T22:04:33.412Z,69.39
2023-04-07T22:07:04.064Z,69.26
2023-04-07T22:09:33.847Z,69.14
2023-04-07T22:12:03.645Z,69.40
2023-04-07T22:14:33.430Z,69.75
2023-04-07T22:17:03.830Z,69.66
2023-04-07T22:19:36.196Z,69.79
2023-04-07T22:22:07.825Z,70.44
2023-04-07T22:24:37.623Z,70.98
2023-04-07T22:27:07.382Z,70.48
2023-04-07T22:29:37.101Z,70.84
2023-04-07T22:32:06.998Z,71.19
2023-04-07T22:34:39.316Z,71.74
2023-04-07T22:37:09.041Z,72.10
2023-04-07T22:39:39.234Z,72.88
2023-04-07T22:42:08.983Z,73.34
2023-04-07T22:44:38.706Z,73.82
2023-04-07T22:47:09.249Z,74.32
2023-04-07T22:49:42.204Z,74.09
2023-04-07T22:52:11.986Z,75.03
2023-04-07T22:54:41.726Z,75.86
2023-04-07T22:57:11.570Z,75.66
2023-04-07T22:59:41.312Z,75.81
2023-04-07T23:02:11.191Z,76.42
2023-04-07T23:04:43.605Z,76.69
2023-04-07T23:07:13.343Z,76.76
2023-04-07T23:09:43.083Z,77.21
2023-04-07T23:12:12.848Z,77.87
2023-04-07T23:14:42.594Z,77.48
2023-04-07T23:17:12.481Z,78.04
2023-04-07T23:19:44.856Z,77.56
2023-04-07T23:22:14.722Z,77.99
2023-04-07T23:24:44.519Z,78.65
2023-04-07T23:27:14.226Z,79.32
2023-04-07T23:29:43.962Z,80.18
2023-04-07T23:32:14.062Z,79.97
2023-04-07T23:34:46.845Z,79.93
2023-04-07T23:37:16.645Z,80.10
2023-04-07T23:39:46.695Z,79.75
2023-04-07T23:42:18.101Z,80.17
2023-04-07T23:44:48.311Z,81.04
2023-04-07T23:47:18.119Z,80.31
2023-04-07T23:49:50.428Z,80.70
2023-04-07T23:52:21.653Z,80.30
2023-04-07T23:54:51.358Z,80.41
2023-04-07T23:57:21.085Z,80.18
2023-04-07T23:59:50.900Z,79.78
